createdAt,value
2019-01-12T00:00:23.421Z,5.30
2019-01-12T00:02:50.132Z,4.83
2019-01-12T00:05:16.890Z,4.57
2019-01-12T00:07:43.580Z,4.57
2019-01-12T00:10:10.342Z,5.90
2019-01-12T00:12:37.028Z,4.87
2019-01-12T00:15:04.993Z,5.23
2019-01-12T00:17:31.725Z,5.23
2019-01-12T00:19:58.465Z,4.83
2019-01-12T00:22:25.189Z,4.80
2019-01-12T00:24:51.873Z,4.53
2019-01-12T00:27:18.513Z,4.90
2019-01-12T00:29:45.262Z,5.30
2019-01-12T00:32:12.325Z,4.73
2019-01-12T00:34:38.985Z,4.60
2019-01-12T00:37:05.586Z,4.60
2019-01-12T00:39:32.244Z,3.97
2019-01-12T00:41:58.851Z,3.80
2019-01-12T00:44:25.580Z,4.20
2019-01-12T00:46:52.293Z,3.90
2019-01-12T00:49:18.996Z,4.30
2019-01-12T00:51:45.634Z,4.27
2019-01-12T00:54:12.293Z,4.10
2019-01-12T00:56:39.028Z,7.57
2019-01-12T00:59:05.628Z,5.00
2019-01-12T01:01:32.414Z,4.90
2019-01-12T01:03:59.131Z,5.03
2019-01-12T01:06:45.664Z,5.13
2019-01-12T01:09:12.212Z,5.00
2019-01-12T01:11:39.010Z,3.73
2019-01-12T01:14:05.671Z,3.93
2019-01-12T01:16:32.220Z,4.10
2019-01-12T01:19:18.669Z,4.03
2019-01-12T01:21:45.212Z,3.90
2019-01-12T01:24:11.759Z,3.63
2019-01-12T01:26:38.300Z,3.70
2019-01-12T01:29:04.867Z,3.83
2019-01-12T01:31:31.424Z,3.50
2019-01-12T01:33:57.955Z,3.37
2019-01-12T01:36:24.519Z,3.40
2019-01-12T01:38:51.063Z,3.17
2019-01-12T01:41:17.631Z,3.37
2019-01-12T01:43:44.170Z,3.50
2019-01-12T01:46:10.715Z,3.80
2019-01-12T01:48:37.260Z,3.47
2019-01-12T01:51:04.841Z,3.90
2019-01-12T01:53:31.400Z,3.40
2019-01-12T01:55:57.960Z,3.67
2019-01-12T01:58:24.488Z,4.00
2019-01-12T02:00:51.043Z,4.03
2019-01-12T02:03:17.591Z,3.67
2019-01-12T02:05:44.147Z,3.43
2019-01-12T02:08:10.704Z,3.63
2019-01-12T02:10:37.252Z,3.80
2019-01-12T02:13:03.839Z,3.37
2019-01-12T02:15:30.441Z,3.07
2019-01-12T02:17:56.975Z,3.17
2019-01-12T02:20:23.530Z,3.33
2019-01-12T02:22:50.072Z,2.80
2019-01-12T02:25:16.624Z,3.30
2019-01-12T02:27:43.154Z,3.33
2019-01-12T02:30:14.973Z,3.27
2019-01-12T02:32:41.511Z,3.40
2019-01-12T02:35:08.066Z,3.30
2019-01-12T02:37:34.872Z,3.40
2019-01-12T02:40:01.526Z,3.30
2019-01-12T02:42:28.072Z,3.40
2019-01-12T02:44:54.614Z,2.87
2019-01-12T02:47:21.166Z,2.73
2019-01-12T02:49:47.711Z,2.73
2019-01-12T02:52:14.265Z,2.50
2019-01-12T02:54:40.824Z,2.87
2019-01-12T02:57:07.424Z,2.73
2019-01-12T02:59:34.012Z,2.47
2019-01-12T03:02:00.564Z,2.80
2019-01-12T03:04:27.104Z,2.93
2019-01-12T03:06:53.661Z,2.90
2019-01-12T03:09:20.205Z,3.07
2019-01-12T03:11:46.756Z,3.30
2019-01-12T03:14:13.296Z,3.03
2019-01-12T03:16:40.166Z,2.73
2019-01-12T03:19:06.727Z,2.70
2019-01-12T03:21:33.293Z,2.70
2019-01-12T03:23:59.839Z,2.53
2019-01-12T03:26:26.398Z,2.50
2019-01-12T03:29:12.820Z,3.37
2019-01-12T03:31:39.381Z,2.50
2019-01-12T03:34:06.311Z,2.73
2019-01-12T03:36:32.867Z,2.23
2019-01-12T03:38:59.410Z,2.90
2019-01-12T03:41:26.170Z,2.50
2019-01-12T03:43:52.817Z,2.70
2019-01-12T03:46:19.448Z,2.90
2019-01-12T03:48:46.014Z,2.93
2019-01-12T03:51:12.557Z,3.00
2019-01-12T03:53:39.119Z,2.63
2019-01-12T03:56:05.659Z,2.80
2019-01-12T03:58:32.208Z,2.70
2019-01-12T04:00:58.747Z,2.80
2019-01-12T04:03:25.312Z,2.60
2019-01-12T04:05:51.860Z,2.43
2019-01-12T04:08:18.412Z,2.60
2019-01-12T04:10:44.960Z,3.10
2019-01-12T04:13:11.523Z,2.50
2019-01-12T04:15:38.074Z,2.80
2019-01-12T04:18:04.628Z,2.67
2019-01-12T04:20:31.164Z,2.90
2019-01-12T04:22:57.720Z,3.00
2019-01-12T04:25:24.285Z,3.17
2019-01-12T04:27:50.827Z,3.33
2019-01-12T04:30:17.471Z,2.80
2019-01-12T04:32:44.128Z,2.60
2019-01-12T04:35:10.964Z,2.80
2019-01-12T04:37:37.508Z,2.63
2019-01-12T04:40:11.540Z,2.80
2019-01-12T04:42:38.090Z,2.30
2019-01-12T04:45:05.823Z,2.33
2019-01-12T04:47:32.387Z,2.60
2019-01-12T04:49:58.917Z,2.27
2019-01-12T04:52:25.576Z,2.23
2019-01-12T04:54:52.332Z,2.63
2019-01-12T04:57:18.882Z,2.60
2019-01-12T04:59:45.427Z,2.60
2019-01-12T05:02:11.968Z,2.33
2019-01-12T05:04:38.516Z,2.40
2019-01-12T05:07:05.105Z,2.07
2019-01-12T05:09:31.732Z,2.70
2019-01-12T05:11:58.327Z,2.70
2019-01-12T05:14:24.925Z,3.27
2019-01-12T05:16:51.464Z,3.10
2019-01-12T05:19:18.030Z,3.40
2019-01-12T05:21:44.559Z,2.90
2019-01-12T05:24:11.109Z,3.10
2019-01-12T05:26:37.659Z,3.27
2019-01-12T05:29:04.220Z,3.13
2019-01-12T05:31:30.765Z,2.93
2019-01-12T05:33:57.331Z,3.10
2019-01-12T05:36:23.863Z,2.70
2019-01-12T05:38:50.419Z,2.80
2019-01-12T05:41:16.957Z,2.60
2019-01-12T05:43:43.512Z,3.27
2019-01-12T05:46:10.055Z,3.03
2019-01-12T05:48:36.621Z,3.20
2019-01-12T05:51:03.252Z,2.80
2019-01-12T05:53:29.825Z,3.60
2019-01-12T05:55:58.108Z,3.27
2019-01-12T05:58:24.830Z,3.27
2019-01-12T06:00:51.455Z,4.50
2019-01-12T06:03:18.002Z,4.03
2019-01-12T06:05:44.556Z,4.10
2019-01-12T06:08:11.103Z,4.17
2019-01-12T06:10:37.660Z,4.30
2019-01-12T06:13:04.206Z,4.60
2019-01-12T06:15:30.765Z,4.00
2019-01-12T06:17:57.299Z,4.50
2019-01-12T06:20:23.843Z,4.50
2019-01-12T06:22:50.768Z,4.03
2019-01-12T06:25:17.326Z,4.10
2019-01-12T06:27:43.864Z,3.93
2019-01-12T06:30:11.917Z,4.30
2019-01-12T06:32:38.459Z,4.90
2019-01-12T06:35:05.119Z,4.40
2019-01-12T06:37:31.655Z,3.80
2019-01-12T06:39:58.203Z,4.53
2019-01-12T06:42:24.759Z,4.23
2019-01-12T06:44:51.313Z,4.67
2019-01-12T06:47:17.847Z,4.13
2019-01-12T06:49:44.403Z,4.43
2019-01-12T06:52:10.945Z,4.77
2019-01-12T06:54:37.516Z,5.03
2019-01-12T06:57:04.058Z,5.03
2019-01-12T06:59:30.632Z,4.60
2019-01-12T07:01:57.174Z,5.20
2019-01-12T07:04:23.723Z,4.20
2019-01-12T07:06:50.275Z,4.47
2019-01-12T07:09:16.837Z,5.63
2019-01-12T07:11:43.375Z,5.47
2019-01-12T07:14:09.943Z,5.13
2019-01-12T07:16:36.491Z,4.47
2019-01-12T07:19:03.036Z,4.40
2019-01-12T07:21:29.997Z,4.53
2019-01-12T07:23:56.620Z,4.60
2019-01-12T07:26:23.174Z,5.07
2019-01-12T07:28:49.711Z,5.03
2019-01-12T07:31:16.271Z,4.33
2019-01-12T07:33:43.060Z,5.23
2019-01-12T07:36:09.617Z,5.30
2019-01-12T07:38:36.159Z,5.10
2019-01-12T07:41:02.728Z,5.27
2019-01-12T07:43:29.272Z,5.40
2019-01-12T07:45:55.838Z,4.77
2019-01-12T07:48:22.376Z,4.70
2019-01-12T07:50:48.935Z,5.13
2019-01-12T07:53:15.516Z,6.10
2019-01-12T07:55:42.077Z,6.80
2019-01-12T07:58:08.622Z,6.90
2019-01-12T08:00:35.183Z,6.57
2019-01-12T08:03:01.745Z,6.63
2019-01-12T08:05:28.309Z,6.17
2019-01-12T08:07:54.860Z,5.77
2019-01-12T08:10:21.616Z,6.63
2019-01-12T08:12:48.366Z,5.70
2019-01-12T08:15:15.302Z,5.70
2019-01-12T08:17:41.846Z,4.50
2019-01-12T08:20:09.098Z,5.43
2019-01-12T08:22:35.641Z,4.97
2019-01-12T08:25:03.214Z,5.13
2019-01-12T08:27:29.758Z,4.80
2019-01-12T08:29:56.301Z,4.87
2019-01-12T08:32:22.863Z,4.37
2019-01-12T08:34:49.408Z,3.90
2019-01-12T08:37:15.955Z,4.40
2019-01-12T08:39:42.501Z,4.33
2019-01-12T08:42:09.062Z,4.27
2019-01-12T08:44:35.603Z,4.23
2019-01-12T08:47:02.170Z,4.63
2019-01-12T08:49:28.717Z,4.00
2019-01-12T08:51:55.284Z,4.33
2019-01-12T08:54:21.841Z,4.03
2019-01-12T08:56:48.440Z,4.03
2019-01-12T08:59:15.022Z,4.27
2019-01-12T09:01:41.581Z,5.30
2019-01-12T09:04:08.477Z,6.00
2019-01-12T09:06:35.040Z,5.80
2019-01-12T09:09:01.588Z,6.87
2019-01-12T09:11:28.162Z,5.13
2019-01-12T09:13:54.769Z,4.57
2019-01-12T09:16:21.308Z,4.40
2019-01-12T09:18:47.861Z,4.37
2019-01-12T09:21:14.424Z,4.27
2019-01-12T09:23:40.990Z,3.80
2019-01-12T09:26:07.541Z,3.80
2019-01-12T09:28:34.337Z,4.43
2019-01-12T09:31:00.900Z,3.97
2019-01-12T09:33:27.528Z,4.10
2019-01-12T09:35:54.117Z,4.10
2019-01-12T09:38:20.659Z,6.03
2019-01-12T09:40:47.195Z,4.20
2019-01-12T09:43:13.752Z,3.40
2019-01-12T09:45:40.287Z,3.87
2019-01-12T09:48:06.848Z,3.37
2019-01-12T09:50:33.396Z,4.73
2019-01-12T09:52:59.965Z,4.03
2019-01-12T09:55:26.504Z,4.20
2019-01-12T09:57:53.071Z,3.37
2019-01-12T10:00:23.122Z,3.73
2019-01-12T10:02:49.681Z,3.37
2019-01-12T10:05:16.219Z,3.70
2019-01-12T10:07:42.777Z,3.93
2019-01-12T10:10:10.927Z,3.43
2019-01-12T10:12:37.509Z,3.27
2019-01-12T10:15:05.157Z,3.73
2019-01-12T10:17:31.699Z,4.00
2019-01-12T10:19:58.246Z,3.57
2019-01-12T10:22:28.577Z,3.57
2019-01-12T10:24:53.258Z,4.90
2019-01-12T10:27:20.307Z,4.03
2019-01-12T10:29:46.844Z,4.00
2019-01-12T10:32:13.648Z,3.97
2019-01-12T10:34:40.194Z,3.87
2019-01-12T10:37:06.739Z,3.57
2019-01-12T10:39:33.302Z,2.90
2019-01-12T10:41:59.875Z,4.43
2019-01-12T10:44:26.410Z,3.33
2019-01-12T10:46:52.999Z,2.70
2019-01-12T10:49:19.557Z,2.80
2019-01-12T10:51:46.100Z,3.30
2019-01-12T10:54:12.667Z,3.07
2019-01-12T10:56:39.220Z,3.47
2019-01-12T10:59:11.588Z,3.50
2019-01-12T11:01:38.139Z,3.10
2019-01-12T11:04:05.802Z,3.73
2019-01-12T11:06:32.352Z,2.90
2019-01-12T11:08:59.012Z,3.40
2019-01-12T11:11:25.561Z,3.27
2019-01-12T11:13:52.115Z,2.97
2019-01-12T11:16:18.764Z,3.50
2019-01-12T11:18:45.320Z,4.03
2019-01-12T11:21:12.182Z,3.40
2019-01-12T11:23:38.751Z,3.70
2019-01-12T11:26:05.379Z,3.40
2019-01-12T11:28:31.929Z,3.90
2019-01-12T11:30:58.486Z,4.13
2019-01-12T11:33:25.035Z,3.87
2019-01-12T11:35:51.575Z,3.63
2019-01-12T11:38:18.136Z,4.20
2019-01-12T11:40:44.676Z,4.17
2019-01-12T11:43:11.245Z,4.07
2019-01-12T11:45:37.775Z,4.00
2019-01-12T11:48:04.339Z,3.47
2019-01-12T11:50:30.888Z,3.63
2019-01-12T11:52:57.474Z,4.43
2019-01-12T11:55:24.016Z,4.00
2019-01-12T11:57:50.577Z,3.60
2019-01-12T12:00:19.048Z,3.90
2019-01-12T12:02:45.603Z,3.77
2019-01-12T12:05:12.193Z,4.53
2019-01-12T12:07:38.732Z,4.60
2019-01-12T12:10:07.516Z,3.57
2019-01-12T12:12:34.203Z,3.70
2019-01-12T12:15:00.764Z,3.00
2019-01-12T12:17:27.305Z,3.80
2019-01-12T12:19:53.868Z,3.30
2019-01-12T12:22:20.615Z,3.50
2019-01-12T12:24:47.172Z,3.97
2019-01-12T12:27:13.723Z,3.40
2019-01-12T12:29:40.288Z,3.47
2019-01-12T12:32:06.879Z,3.60
2019-01-12T12:34:33.460Z,3.90
2019-01-12T12:37:00.019Z,4.47
2019-01-12T12:39:26.563Z,3.70
2019-01-12T12:41:53.113Z,4.23
2019-01-12T12:44:19.673Z,4.40
2019-01-12T12:46:46.670Z,4.67
2019-01-12T12:49:13.225Z,4.10
2019-01-12T12:51:39.773Z,4.70
2019-01-12T12:54:06.358Z,4.77
2019-01-12T12:56:32.894Z,5.13
2019-01-12T12:58:59.627Z,4.23
2019-01-12T13:01:26.200Z,4.40
2019-01-12T13:03:52.763Z,4.80
2019-01-12T13:06:19.300Z,5.17
2019-01-12T13:08:48.489Z,4.17
2019-01-12T13:11:15.394Z,4.90
2019-01-12T13:13:41.948Z,4.50
2019-01-12T13:16:08.499Z,5.00
2019-01-12T13:18:35.048Z,4.47
2019-01-12T13:21:01.604Z,5.70
2019-01-12T13:23:28.147Z,4.83
2019-01-12T13:25:54.722Z,5.50
2019-01-12T13:28:21.276Z,5.90
2019-01-12T13:30:47.827Z,6.20
2019-01-12T13:33:14.371Z,6.30
2019-01-12T13:35:40.923Z,6.83
2019-01-12T13:38:07.504Z,5.60
2019-01-12T13:40:34.055Z,5.33
2019-01-12T13:43:00.599Z,5.60
2019-01-12T13:45:27.161Z,5.70
2019-01-12T13:47:53.702Z,5.77
2019-01-12T13:50:21.264Z,5.73
2019-01-12T13:52:47.849Z,4.97
2019-01-12T13:55:14.809Z,4.83
2019-01-12T13:57:47.334Z,4.70
2019-01-12T14:00:26.525Z,5.33
2019-01-12T14:02:53.099Z,4.17
2019-01-12T14:05:19.802Z,4.00
2019-01-12T14:07:46.446Z,4.00
2019-01-12T14:10:15.217Z,3.37
2019-01-12T14:12:41.774Z,3.47
2019-01-12T14:15:10.318Z,3.07
2019-01-12T14:17:36.893Z,2.97
2019-01-12T14:20:05.352Z,3.43
2019-01-12T14:22:31.890Z,2.93
2019-01-12T14:24:58.441Z,2.80
2019-01-12T14:27:24.984Z,3.17
2019-01-12T14:29:51.547Z,3.10
2019-01-12T14:32:18.192Z,3.00
2019-01-12T14:34:47.355Z,2.30
2019-01-12T14:37:13.914Z,3.03
2019-01-12T14:39:40.485Z,2.80
2019-01-12T14:42:07.097Z,3.97
2019-01-12T14:44:33.733Z,3.83
2019-01-12T14:47:00.291Z,3.60
2019-01-12T14:49:26.844Z,3.53
2019-01-12T14:51:53.424Z,3.60
2019-01-12T14:54:19.991Z,3.30
2019-01-12T14:56:46.572Z,2.40
2019-01-12T14:59:13.135Z,3.77
2019-01-12T15:01:39.729Z,4.20
2019-01-12T15:04:06.377Z,3.37
2019-01-12T15:06:33.345Z,3.40
2019-01-12T15:09:00.964Z,3.93
2019-01-12T15:11:27.598Z,4.33
2019-01-12T15:13:54.139Z,3.67
2019-01-12T15:16:20.737Z,4.13
2019-01-12T15:18:47.297Z,4.10
2019-01-12T15:21:13.895Z,4.13
2019-01-12T15:23:40.443Z,3.93
2019-01-12T15:26:07.018Z,3.80
2019-01-12T15:28:33.591Z,4.47
2019-01-12T15:31:00.166Z,4.27
2019-01-12T15:33:28.205Z,3.90
2019-01-12T15:35:55.254Z,4.73
2019-01-12T15:38:21.802Z,3.33
2019-01-12T15:40:48.373Z,4.30
2019-01-12T15:43:14.926Z,3.60
2019-01-12T15:45:41.475Z,3.33
2019-01-12T15:48:08.019Z,3.50
2019-01-12T15:50:34.593Z,5.00
2019-01-12T15:53:01.632Z,4.27
2019-01-12T15:55:28.461Z,4.27
2019-01-12T15:57:55.075Z,4.60
2019-01-12T16:00:22.836Z,4.03
2019-01-12T16:02:49.482Z,4.53
2019-01-12T16:05:16.027Z,4.13
2019-01-12T16:07:42.578Z,3.97
2019-01-12T16:10:10.223Z,4.30
2019-01-12T16:12:36.787Z,3.63
2019-01-12T16:15:05.133Z,4.30
2019-01-12T16:17:31.685Z,4.30
2019-01-12T16:19:58.226Z,4.03
2019-01-12T16:22:24.780Z,4.03
2019-01-12T16:24:51.335Z,3.20
2019-01-12T16:27:17.901Z,4.30
2019-01-12T16:29:44.452Z,4.03
2019-01-12T16:32:10.993Z,4.00
2019-01-12T16:34:37.542Z,3.87
2019-01-12T16:37:04.230Z,3.93
2019-01-12T16:39:30.769Z,4.00
2019-01-12T16:41:57.320Z,4.50
2019-01-12T16:44:23.883Z,4.13
2019-01-12T16:46:50.454Z,3.37
2019-01-12T16:49:17.014Z,3.47
2019-01-12T16:51:43.565Z,3.93
2019-01-12T16:54:10.126Z,4.00
2019-01-12T16:56:36.720Z,3.47
2019-01-12T16:59:03.283Z,3.67
2019-01-12T17:01:29.862Z,3.50
2019-01-12T17:03:56.419Z,3.27
2019-01-12T17:06:22.997Z,2.93
2019-01-12T17:08:49.586Z,3.30
2019-01-12T17:11:16.140Z,2.97
2019-01-12T17:13:42.713Z,4.00
2019-01-12T17:16:09.269Z,2.97
2019-01-12T17:18:35.843Z,3.70
2019-01-12T17:21:02.417Z,3.30
2019-01-12T17:23:28.987Z,3.40
2019-01-12T17:25:55.600Z,4.00
2019-01-12T17:28:22.171Z,4.07
2019-01-12T17:30:48.729Z,4.07
2019-01-12T17:33:15.309Z,4.47
2019-01-12T17:35:41.875Z,3.77
2019-01-12T17:38:08.498Z,3.13
2019-01-12T17:40:35.051Z,3.80
2019-01-12T17:43:01.620Z,3.53
2019-01-12T17:45:28.181Z,3.80
2019-01-12T17:47:54.746Z,3.40
2019-01-12T17:50:22.233Z,3.67
2019-01-12T17:52:48.802Z,3.67
2019-01-12T17:55:16.484Z,3.03
2019-01-12T17:57:43.053Z,3.37
2019-01-12T18:00:13.015Z,3.70
2019-01-12T18:02:39.595Z,3.37
2019-01-12T18:05:06.145Z,3.30
2019-01-12T18:07:32.775Z,3.10
2019-01-12T18:09:59.336Z,3.07
2019-01-12T18:12:25.921Z,3.53
2019-01-12T18:14:52.585Z,2.60
2019-01-12T18:17:19.170Z,2.70
2019-01-12T18:19:45.732Z,3.10
2019-01-12T18:22:12.291Z,2.87
2019-01-12T18:24:38.859Z,3.37
2019-01-12T18:27:05.422Z,2.83
2019-01-12T18:29:34.035Z,2.70
2019-01-12T18:32:00.588Z,2.23
2019-01-12T18:34:27.212Z,2.60
2019-01-12T18:36:57.394Z,3.30
2019-01-12T18:39:23.951Z,3.07
2019-01-12T18:41:50.519Z,2.83
2019-01-12T18:44:17.095Z,2.40
2019-01-12T18:46:43.656Z,2.97
2019-01-12T18:49:10.219Z,2.70
2019-01-12T18:51:36.802Z,2.60
2019-01-12T18:54:03.380Z,2.53
2019-01-12T18:56:29.941Z,2.60
2019-01-12T18:58:58.968Z,2.50
2019-01-12T19:01:24.982Z,2.43
2019-01-12T19:03:51.556Z,2.67
2019-01-12T19:06:18.119Z,2.53
2019-01-12T19:11:48.438Z,3.10
2019-01-12T19:14:15.002Z,2.53
2019-01-12T19:16:41.642Z,3.03
2019-01-12T19:19:08.632Z,2.60
2019-01-12T19:21:37.168Z,2.37
2019-01-12T19:24:04.063Z,2.57
2019-01-12T19:26:30.633Z,2.43
2019-01-12T19:28:57.209Z,2.33
2019-01-12T19:31:23.779Z,2.13
2019-01-12T19:33:53.117Z,2.37
2019-01-12T19:36:19.667Z,1.80
2019-01-12T19:38:48.243Z,2.10
2019-01-12T19:41:14.895Z,2.83
2019-01-12T19:43:44.303Z,2.63
2019-01-12T19:46:10.858Z,2.57
2019-01-12T19:48:37.631Z,2.20
2019-01-12T19:51:04.181Z,2.27
2019-01-12T19:53:30.766Z,2.07
2019-01-12T19:56:00.463Z,2.27
2019-01-12T19:58:28.974Z,1.90
2019-01-12T20:00:57.512Z,2.00
2019-01-12T20:03:26.124Z,2.23
2019-01-12T20:05:52.664Z,1.90
2019-01-12T20:08:19.213Z,1.80
2019-01-12T20:10:45.754Z,2.27
2019-01-12T20:13:12.310Z,2.00
2019-01-12T20:15:38.852Z,2.03
2019-01-12T20:18:06.977Z,1.80
2019-01-12T20:20:36.522Z,1.90
2019-01-12T20:23:03.066Z,1.80
2019-01-12T20:25:29.630Z,1.70
2019-01-12T20:27:56.162Z,1.70
2019-01-12T20:30:24.641Z,1.60
2019-01-12T20:33:02.077Z,2.30
2019-01-12T20:35:30.641Z,1.77
2019-01-12T20:38:01.820Z,1.60
2019-01-12T20:40:33.447Z,5.27
2019-01-12T20:43:07.712Z,1.77
2019-01-12T20:45:39.208Z,1.77
2019-01-12T20:48:10.989Z,2.00
2019-01-12T20:50:39.446Z,2.00
2019-01-12T20:56:00.761Z,1.97
2019-01-12T20:58:35.284Z,1.70
2019-01-12T21:01:22.681Z,1.93
2019-01-12T21:03:51.225Z,1.87
2019-01-12T21:06:37.923Z,1.50
2019-01-12T21:09:07.489Z,2.50
2019-01-12T21:11:38.683Z,1.67
2019-01-12T21:14:16.265Z,1.70
2019-01-12T21:16:42.899Z,1.87
2019-01-12T21:19:11.259Z,1.63
2019-01-12T21:21:41.031Z,1.87
2019-01-12T21:24:07.627Z,1.63
2019-01-12T21:26:35.480Z,1.50
2019-01-12T21:29:02.182Z,1.30
2019-01-12T21:31:28.751Z,1.37
2019-01-12T21:33:57.232Z,1.57
2019-01-12T21:36:23.793Z,1.50
2019-01-12T21:38:50.334Z,1.33
2019-01-12T21:41:17.023Z,1.30
2019-01-12T21:43:43.564Z,2.00
2019-01-12T21:46:10.117Z,1.60
2019-01-12T21:48:36.653Z,1.70
2019-01-12T21:51:03.536Z,1.70
2019-01-12T21:53:30.094Z,1.70
2019-01-12T21:55:56.653Z,1.80
2019-01-12T21:58:23.191Z,1.50
2019-01-12T22:00:49.750Z,1.50
2019-01-12T22:03:16.289Z,1.30
2019-01-12T22:05:42.839Z,1.60
2019-01-12T22:08:09.398Z,1.20
2019-01-12T22:10:35.952Z,1.53
2019-01-12T22:13:02.592Z,2.07
2019-01-12T22:15:29.144Z,2.83
2019-01-12T22:17:55.686Z,3.50
2019-01-12T22:20:22.234Z,2.80
2019-01-12T22:22:49.315Z,2.33
2019-01-12T22:25:15.874Z,4.17
2019-01-12T22:27:42.432Z,2.80
2019-01-12T22:30:11.119Z,2.80
2019-01-12T22:32:37.663Z,2.50
2019-01-12T22:35:04.508Z,2.37
2019-01-12T22:37:31.057Z,2.10
2019-01-12T22:39:57.591Z,1.63
2019-01-12T22:42:24.138Z,1.40
2019-01-12T22:44:50.675Z,1.77
2019-01-12T22:47:17.226Z,1.50
2019-01-12T22:49:43.769Z,2.17
2019-01-12T22:52:10.345Z,2.00
2019-01-12T22:54:36.897Z,1.57
2019-01-12T22:57:03.449Z,1.57
2019-01-12T22:59:30.001Z,1.70
2019-01-12T23:01:56.856Z,1.60
2019-01-12T23:04:23.606Z,1.40
2019-01-12T23:06:50.155Z,1.50
2019-01-12T23:09:16.700Z,1.30
2019-01-12T23:11:43.555Z,1.20
2019-01-12T23:14:10.092Z,1.37
2019-01-12T23:16:36.640Z,0.90
2019-01-12T23:19:04.684Z,1.20
2019-01-12T23:21:31.241Z,1.23
2019-01-12T23:23:57.780Z,1.70
2019-01-12T23:26:24.339Z,1.20
2019-01-12T23:28:51.153Z,1.27
2019-01-12T23:31:17.724Z,1.20
2019-01-12T23:33:44.268Z,1.20
2019-01-12T23:36:10.880Z,1.20
2019-01-12T23:38:37.523Z,1.10
2019-01-12T23:41:04.065Z,1.30
2019-01-12T23:43:30.623Z,1.40
2019-01-12T23:45:57.172Z,1.30
2019-01-12T23:48:23.722Z,1.33
2019-01-12T23:50:50.428Z,1.20
2019-01-12T23:53:16.996Z,1.30
2019-01-12T23:55:43.541Z,1.33
2019-01-12T23:58:10.096Z,0.97
